Time;durP1;ratioP1;P1;durP2;ratioP2;P2;SDS_P1;SDS_P2;PMS_P1;PMS_P2;Temp;Humidity;BMP_temperature;BMP_pressure;BME280_temperature;BME280_humidity;BME280_pressure;Samples;Min_cycle;Max_cycle;Signal;HPM_P1;HPM_P2
2022/12/11 00:01:15;;;;;;;99.95;23.48;;;;;;;1.94;100.00;101090.06;2613528;36;20023;-49
2022/12/11 00:03:47;;;;;;;95.72;24.67;;;;;;;1.79;100.00;101090.84;2614226;36;20030;-49
2022/12/11 00:06:17;;;;;;;92.20;22.73;;;;;;;1.87;100.00;101089.53;2614896;36;20023;-49
2022/12/11 00:08:46;;;;;;;95.72;24.55;;;;;;;1.68;100.00;101094.84;2613080;36;20073;-50
2022/12/11 00:11:16;;;;;;;99.75;23.35;;;;;;;1.77;100.00;101092.69;2609832;36;20034;-48
2022/12/11 00:13:45;;;;;;;112.03;23.70;;;;;;;1.65;100.00;101091.47;2612716;36;20039;-50
2022/12/11 00:16:14;;;;;;;98.40;24.55;;;;;;;1.84;100.00;101089.69;2613823;36;20022;-49
2022/12/11 00:18:42;;;;;;;98.65;23.30;;;;;;;1.94;100.00;101084.75;2614443;36;20563;-48
2022/12/11 00:21:16;;;;;;;98.22;24.20;;;;;;;1.91;100.00;101087.56;2613942;36;20041;-50
2022/12/11 00:23:44;;;;;;;99.63;22.48;;;;;;;2.06;100.00;101081.53;2614114;36;20573;-50
2022/12/11 00:26:15;;;;;;;100.80;23.85;;;;;;;2.06;100.00;101086.84;2611272;36;20030;-49
2022/12/11 00:28:44;;;;;;;93.05;23.00;;;;;;;1.96;100.00;101084.69;2615569;31;20030;-50
2022/12/11 00:31:16;;;;;;;104.90;24.10;;;;;;;1.91;100.00;101084.91;2614624;36;20041;-48
2022/12/11 00:33:47;;;;;;;92.70;24.27;;;;;;;1.84;100.00;101088.81;2615139;36;20026;-50
2022/12/11 00:36:21;;;;;;;92.03;23.90;;;;;;;1.70;100.00;101081.53;2614973;36;20540;-51
2022/12/11 00:38:49;;;;;;;91.07;23.95;;;;;;;1.76;100.00;101081.22;2615153;36;20034;-53
2022/12/11 00:41:18;;;;;;;88.23;21.90;;;;;;;1.90;100.00;101086.72;2614792;36;20023;-49
2022/12/11 00:43:47;;;;;;;88.40;21.90;;;;;;;1.88;100.00;101087.72;2614948;36;20286;-51
2022/12/11 00:46:15;;;;;;;86.07;22.42;;;;;;;2.01;100.00;101086.19;2615838;31;20554;-49
2022/12/11 00:48:45;;;;;;;89.65;23.52;;;;;;;1.94;100.00;101084.75;2615670;36;20426;-49
2022/12/11 00:51:13;;;;;;;88.60;22.92;;;;;;;1.94;100.00;101092.72;2614492;36;20043;-50
2022/12/11 00:53:45;;;;;;;87.77;22.43;;;;;;;2.00;100.00;101083.59;2614828;36;20034;-50
2022/12/11 00:56:15;;;;;;;99.82;22.58;;;;;;;1.83;100.00;101087.94;2615358;31;20394;-48
2022/12/11 00:58:44;;;;;;;100.50;23.73;;;;;;;1.70;100.00;101087.66;2614574;36;20034;-50
2022/12/11 01:01:14;;;;;;;78.67;22.40;;;;;;;1.78;100.00;101089.09;2614596;36;20289;-48
2022/12/11 01:03:42;;;;;;;96.00;21.77;;;;;;;1.99;100.00;101085.41;2615142;36;20540;-49
2022/12/11 01:06:15;;;;;;;93.85;22.58;;;;;;;1.84;100.00;101081.72;2615073;31;20578;-49
2022/12/11 01:08:47;;;;;;;83.65;22.17;;;;;;;1.79;100.00;101083.72;2614942;36;20042;-49
2022/12/11 01:11:14;;;;;;;90.50;21.35;;;;;;;1.89;100.00;101081.50;2614719;36;20027;-51
2022/12/11 01:13:45;;;;;;;80.93;22.35;;;;;;;2.15;100.00;101088.19;2615645;31;20032;-49
2022/12/11 01:16:15;;;;;;;87.47;22.80;;;;;;;1.86;100.00;101084.28;2615383;36;20468;-49
2022/12/11 01:18:44;;;;;;;93.68;21.83;;;;;;;1.94;100.00;101082.09;2615380;36;20038;-49
2022/12/11 01:21:14;;;;;;;84.05;21.25;;;;;;;1.88;100.00;101085.91;2615578;36;20027;-50
2022/12/11 01:23:45;;;;;;;93.85;21.05;;;;;;;2.12;100.00;101087.44;2615650;36;20037;-50
2022/12/11 01:26:16;;;;;;;88.07;23.13;;;;;;;1.98;100.00;101081.03;2614951;36;20458;-48
2022/12/11 01:28:45;;;;;;;90.72;21.83;;;;;;;1.87;100.00;101084.22;2616027;36;20030;-49
2022/12/11 01:31:16;;;;;;;82.25;22.38;;;;;;;1.97;100.00;101089.91;2616160;36;20031;-48
2022/12/11 01:33:44;;;;;;;95.25;22.50;;;;;;;1.78;100.00;101075.84;2614112;36;20031;-49
2022/12/11 01:36:15;;;;;;;83.40;20.63;;;;;;;1.82;100.00;101086.22;2613196;36;20030;-49
2022/12/11 01:38:46;;;;;;;84.53;21.15;;;;;;;1.91;100.00;101080.50;2615961;36;20034;-52
2022/12/11 01:41:16;;;;;;;89.45;21.63;;;;;;;1.95;100.00;101081.19;2614478;36;20554;-50
2022/12/11 01:44:02;;;;;;;76.80;20.77;;;;;;;1.94;100.00;101076.78;2615903;36;20041;-51
2022/12/11 01:46:32;;;;;;;85.70;22.48;;;;;;;1.90;100.00;101077.91;2616229;36;20030;-49
2022/12/11 01:49:02;;;;;;;91.20;21.48;;;;;;;1.90;100.00;101083.22;2615433;36;20723;-49
2022/12/11 01:51:32;;;;;;;80.80;20.67;;;;;;;1.88;100.00;101074.44;2614717;36;20431;-51
2022/12/11 01:54:08;;;;;;;84.43;19.52;;;;;;;1.92;100.00;101065.41;2615530;36;20023;-49
2022/12/11 01:56:39;;;;;;;84.75;21.65;;;;;;;1.97;100.00;101078.44;2615139;36;20570;-49
2022/12/11 01:59:09;;;;;;;80.25;21.85;;;;;;;2.02;100.00;101076.44;2615190;36;20069;-51
2022/12/11 02:01:41;;;;;;;87.63;21.48;;;;;;;2.07;100.00;101075.25;2614449;31;20037;-50
2022/12/11 02:04:11;;;;;;;80.47;20.73;;;;;;;2.10;100.00;101074.25;2616016;31;20034;-50
2022/12/11 02:06:41;;;;;;;83.63;21.50;;;;;;;2.08;100.00;101076.97;2614217;36;20033;-50
2022/12/11 02:09:15;;;;;;;93.70;22.90;;;;;;;2.07;100.00;101080.56;2615610;36;20062;-51
2022/12/11 02:11:54;;;;;;;87.63;20.10;;;;;;;2.06;100.00;101062.06;2613585;36;20039;-49
2022/12/11 02:14:33;;;;;;;92.55;23.05;;;;;;;1.97;100.00;101068.69;2608906;36;20039;-49
2022/12/11 02:17:08;;;;;;;76.75;20.70;;;;;;;2.09;100.00;101068.09;2609384;36;20104;-50
2022/12/11 02:19:50;;;;;;;89.43;22.67;;;;;;;2.09;100.00;101070.75;2610512;36;20029;-49
2022/12/11 02:22:35;;;;;;;87.93;22.45;;;;;;;2.00;100.00;101068.53;2609467;31;20058;-50
2022/12/11 02:25:17;;;;;;;82.43;21.55;;;;;;;2.13;100.00;101059.97;2607634;36;20038;-51
2022/12/11 02:27:55;;;;;;;76.07;20.52;;;;;;;2.14;100.00;101059.03;2607903;36;20062;-49
2022/12/11 02:30:27;;;;;;;96.75;22.00;;;;;;;2.03;100.00;101063.09;2608469;31;20022;-51
2022/12/11 02:32:57;;;;;;;84.88;21.90;;;;;;;2.04;100.00;101058.63;2609520;36;20065;-50
2022/12/11 02:35:30;;;;;;;84.30;23.20;;;;;;;2.09;100.00;101054.81;2609206;36;20653;-50
2022/12/11 02:38:04;;;;;;;92.50;22.75;;;;;;;2.11;100.00;101057.41;2609865;31;20035;-49
2022/12/11 02:40:36;;;;;;;92.00;23.15;;;;;;;2.03;100.00;101054.25;2609058;31;20506;-50
2022/12/11 02:43:08;;;;;;;85.47;20.75;;;;;;;1.97;100.00;101047.44;2610883;36;20537;-49
2022/12/11 02:45:42;;;;;;;90.05;23.48;;;;;;;2.02;100.00;101045.44;2609160;31;20620;-50
2022/12/11 02:48:13;;;;;;;94.22;22.25;;;;;;;2.09;100.00;101053.94;2608249;36;20607;-48
2022/12/11 02:50:46;;;;;;;95.95;21.85;;;;;;;2.07;100.00;101055.81;2610215;36;20038;-50
2022/12/11 02:53:18;;;;;;;97.90;21.60;;;;;;;2.09;100.00;101052.16;2609172;36;20034;-49
2022/12/11 02:55:49;;;;;;;100.03;23.80;;;;;;;2.05;100.00;101049.75;2609274;36;20547;-51
2022/12/11 02:58:21;;;;;;;87.20;22.13;;;;;;;2.10;100.00;101047.69;2608931;36;20041;-50
2022/12/11 03:00:52;;;;;;;82.75;22.17;;;;;;;2.09;100.00;101044.19;2608890;36;20038;-49
2022/12/11 03:03:21;;;;;;;85.45;20.88;;;;;;;2.14;100.00;101049.28;2609513;36;20042;-51
2022/12/11 03:05:49;;;;;;;102.93;24.13;;;;;;;2.13;100.00;101039.56;2609919;36;20034;-48
2022/12/11 03:08:18;;;;;;;94.72;23.05;;;;;;;2.35;100.00;101041.16;2608930;36;20392;-48
2022/12/11 03:10:47;;;;;;;92.93;22.30;;;;;;;2.31;100.00;101027.16;2607935;36;20035;-49
2022/12/11 03:13:20;;;;;;;82.15;21.48;;;;;;;2.25;100.00;101024.81;2609758;36;20038;-49
2022/12/11 03:15:59;;;;;;;86.35;21.90;;;;;;;2.18;100.00;101040.22;2608806;36;20575;-49
2022/12/11 03:18:36;;;;;;;89.95;21.92;;;;;;;2.13;100.00;101031.63;2608173;36;20038;-47
2022/12/11 03:21:09;;;;;;;86.88;22.17;;;;;;;2.26;100.00;101040.66;2608972;36;20053;-49
2022/12/11 03:23:45;;;;;;;99.50;21.73;;;;;;;2.34;100.00;101040.31;2609138;36;20038;-48
2022/12/11 03:26:17;;;;;;;103.25;22.25;;;;;;;2.13;100.00;101038.72;2607972;36;20042;-50
2022/12/11 03:28:49;;;;;;;92.78;21.60;;;;;;;2.20;100.00;101034.84;2607968;36;20037;-49
2022/12/11 03:31:27;;;;;;;84.15;22.25;;;;;;;2.23;100.00;101037.31;2608719;36;20411;-50
2022/12/11 03:34:01;;;;;;;88.87;21.27;;;;;;;2.42;100.00;101032.78;2610405;36;20042;-50
2022/12/11 03:36:35;;;;;;;94.03;23.23;;;;;;;2.50;100.00;101040.34;2609266;31;20743;-50
2022/12/11 03:39:09;;;;;;;91.82;23.33;;;;;;;2.40;100.00;101045.28;2608611;36;20435;-52
2022/12/11 03:41:40;;;;;;;96.40;23.50;;;;;;;2.48;100.00;101047.53;2608247;36;20061;-53
2022/12/11 03:44:09;;;;;;;93.13;21.73;;;;;;;2.50;100.00;101045.66;2611144;31;20034;-51
2022/12/11 03:46:42;;;;;;;95.57;23.20;;;;;;;2.53;100.00;101048.19;2608675;36;20035;-49
2022/12/11 03:49:18;;;;;;;96.05;24.23;;;;;;;2.47;100.00;101050.28;2609121;36;20586;-52
2022/12/11 03:51:49;;;;;;;82.55;22.48;;;;;;;2.68;100.00;101048.28;2609417;36;20030;-49
2022/12/11 03:54:19;;;;;;;94.78;22.40;;;;;;;2.68;100.00;101043.84;2608594;36;20034;-50
2022/12/11 03:56:50;;;;;;;78.30;22.25;;;;;;;2.50;100.00;101043.00;2608680;36;20497;-50
2022/12/11 03:59:18;;;;;;;97.00;22.58;;;;;;;2.47;100.00;101044.97;2609901;36;20057;-51
2022/12/11 04:01:49;;;;;;;94.07;23.17;;;;;;;2.44;100.00;101046.84;2609515;36;20062;-54
2022/12/11 04:04:18;;;;;;;95.90;22.60;;;;;;;2.51;100.00;101036.75;2608709;36;20041;-47
2022/12/11 04:06:46;;;;;;;94.38;23.63;;;;;;;2.49;100.00;101036.00;2608790;31;20041;-52
2022/12/11 04:09:14;;;;;;;90.43;20.33;;;;;;;2.54;100.00;101033.09;2607855;36;20049;-49
2022/12/11 04:11:43;;;;;;;85.60;22.60;;;;;;;2.57;100.00;101036.44;2608952;36;20045;-50
2022/12/11 04:16:58;;;;;;;79.57;22.70;;;;;;;2.37;100.00;101033.94;2608914;31;20542;-50
2022/12/11 04:24:50;;;;;;;86.82;23.50;;;;;;;2.56;100.00;101023.22;2607236;36;20038;-52
2022/12/11 04:27:47;;;;;;;93.47;25.05;;;;;;;2.66;100.00;101020.97;2609379;31;20055;-51
2022/12/11 04:30:12;;;;;;;85.95;21.17;;;;;;;2.63;100.00;101014.88;2609318;36;20117;-51
2022/12/11 04:32:43;;;;;;;89.97;22.50;;;;;;;2.62;100.00;101018.47;2608495;36;20042;-52
2022/12/11 04:35:12;;;;;;;87.10;23.60;;;;;;;2.58;100.00;101014.25;2608065;36;20038;-53
2022/12/11 04:37:41;;;;;;;78.90;20.90;;;;;;;2.54;100.00;101015.34;2608930;31;20029;-54
2022/12/11 04:40:13;;;;;;;83.55;22.40;;;;;;;2.49;100.00;101012.09;2608598;36;20034;-49
2022/12/11 04:42:42;;;;;;;79.53;22.10;;;;;;;2.26;100.00;101007.94;2608113;36;20038;-49
2022/12/11 04:45:12;;;;;;;79.80;24.40;;;;;;;2.39;100.00;101002.88;2607951;36;20038;-50
2022/12/11 04:47:44;;;;;;;88.38;21.98;;;;;;;2.42;100.00;101003.56;2609106;36;20031;-50
2022/12/11 04:50:14;;;;;;;87.72;22.48;;;;;;;2.44;100.00;101007.00;2609885;31;20038;-52
2022/12/11 04:52:42;;;;;;;76.45;21.70;;;;;;;2.33;100.00;101011.16;2609410;36;20371;-50
2022/12/11 04:55:12;;;;;;;73.17;21.67;;;;;;;2.29;100.00;100997.16;2609319;36;20042;-49
2022/12/11 04:57:41;;;;;;;84.45;23.83;;;;;;;2.25;100.00;100996.47;2610077;36;20030;-50
2022/12/11 05:00:12;;;;;;;80.45;23.23;;;;;;;2.21;100.00;100994.91;2611086;36;20518;-53
2022/12/11 05:02:44;;;;;;;87.28;24.08;;;;;;;2.35;100.00;100986.22;2609395;36;20535;-49
2022/12/11 05:05:13;;;;;;;79.68;22.98;;;;;;;2.31;100.00;100986.47;2610067;31;20034;-50
2022/12/11 05:07:42;;;;;;;72.55;23.55;;;;;;;2.25;100.00;100984.97;2610658;36;20455;-50
2022/12/11 05:10:11;;;;;;;84.00;22.25;;;;;;;2.38;100.00;100987.88;2610173;31;20130;-50
2022/12/11 05:12:40;;;;;;;75.53;22.80;;;;;;;2.52;100.00;100985.34;2608854;36;20043;-49
2022/12/11 05:15:09;;;;;;;78.18;22.23;;;;;;;2.39;100.00;100979.81;2609919;36;20431;-47
2022/12/11 05:17:37;;;;;;;;;;;;;;;2.42;100.00;100981.47;2610242;36;20039;-50
2022/12/11 05:20:10;;;;;;;75.15;24.33;;;;;;;2.31;100.00;100983.81;2609422;36;19951;-52
2022/12/11 05:22:39;;;;;;;79.80;22.38;;;;;;;2.32;100.00;100986.38;2609169;36;20038;-49
2022/12/11 05:25:09;;;;;;;72.18;22.85;;;;;;;2.58;100.00;100989.47;2608202;36;20034;-49
2022/12/11 05:27:38;;;;;;;76.00;22.30;;;;;;;2.44;100.00;100998.16;2610532;31;20646;-49
2022/12/11 05:30:08;;;;;;;74.22;22.85;;;;;;;2.41;100.00;100993.88;2609457;36;20331;-50
2022/12/11 05:32:37;;;;;;;72.38;22.90;;;;;;;2.54;100.00;100998.56;2610424;31;20035;-50
2022/12/11 05:35:09;;;;;;;69.35;21.27;;;;;;;2.50;100.00;101003.16;2594484;36;20034;-50
2022/12/11 05:37:37;;;;;;;68.65;21.58;;;;;;;2.61;100.00;101003.44;2609259;36;20043;-56
2022/12/11 05:40:07;;;;;;;66.13;21.05;;;;;;;2.40;100.00;101000.13;2608023;36;20576;-55
2022/12/11 05:42:36;;;;;;;74.28;23.67;;;;;;;2.42;100.00;100995.59;2609108;36;20034;-57
2022/12/11 05:45:05;;;;;;;67.38;22.33;;;;;;;2.40;100.00;100997.47;2607705;36;20034;-53
2022/12/11 05:47:34;;;;;;;66.22;22.73;;;;;;;2.41;100.00;100996.53;2611475;31;20575;-52
2022/12/11 05:50:02;;;;;;;62.25;21.73;;;;;;;2.29;100.00;100986.53;2609138;36;20038;-59
2022/12/11 05:52:33;;;;;;;68.03;21.92;;;;;;;2.45;100.00;100995.44;2608954;36;20038;-54
2022/12/11 05:55:02;;;;;;;56.78;21.92;;;;;;;2.41;100.00;100985.88;2607501;36;20035;-52
2022/12/11 05:57:30;;;;;;;63.65;22.30;;;;;;;2.26;100.00;100987.56;2609629;36;20038;-51
2022/12/11 05:59:58;;;;;;;63.75;20.15;;;;;;;2.26;100.00;100979.59;2609335;36;20058;-49
2022/12/11 06:02:27;;;;;;;62.45;21.67;;;;;;;2.31;100.00;100978.50;2609985;31;20042;-52
2022/12/11 06:04:55;;;;;;;57.55;20.83;;;;;;;2.34;100.00;100981.88;2609536;36;20038;-50
2022/12/11 06:07:23;;;;;;;62.63;21.25;;;;;;;2.34;100.00;100981.88;2610878;31;20652;-50
2022/12/11 06:09:54;;;;;;;69.30;20.67;;;;;;;2.24;100.00;100985.94;2608337;36;20046;-48
2022/12/11 06:12:23;;;;;;;60.03;20.60;;;;;;;2.25;100.00;100991.16;2608552;36;20061;-48
2022/12/11 06:14:51;;;;;;;52.72;20.02;;;;;;;2.25;100.00;100985.84;2609180;36;20527;-53
2022/12/11 06:17:19;;;;;;;61.72;20.27;;;;;;;2.28;100.00;100984.81;2609769;36;20056;-53
2022/12/11 06:19:48;;;;;;;57.70;20.23;;;;;;;2.14;100.00;100984.69;2609626;36;20648;-51
2022/12/11 06:22:16;;;;;;;58.03;20.45;;;;;;;2.17;100.00;100984.53;2607545;36;20038;-48
2022/12/11 06:24:44;;;;;;;55.20;21.08;;;;;;;2.18;100.00;100980.91;2608571;36;20554;-50
2022/12/11 06:27:18;;;;;;;56.15;19.88;;;;;;;2.15;100.00;100971.34;2612047;31;20037;-49
2022/12/11 06:29:46;;;;;;;60.35;20.20;;;;;;;1.97;100.00;100975.78;2611031;36;20035;-51
2022/12/11 06:32:20;;;;;;;56.78;20.08;;;;;;;2.06;100.00;100972.66;2597889;31;20562;-55
2022/12/11 06:34:49;;;;;;;58.17;20.67;;;;;;;2.08;100.00;100977.91;2610768;36;20041;-53
2022/12/11 06:37:17;;;;;;;47.72;18.05;;;;;;;2.02;100.00;100968.44;2609827;36;20034;-49
2022/12/11 06:39:46;;;;;;;55.72;19.83;;;;;;;2.05;100.00;100976.25;2610585;36;20065;-56
2022/12/11 06:42:17;;;;;;;52.27;21.27;;;;;;;2.07;100.00;100971.72;2610553;36;20069;-53
2022/12/11 06:44:45;;;;;;;45.65;17.75;;;;;;;2.26;100.00;100973.44;2610217;36;20034;-56
2022/12/11 06:47:13;;;;;;;58.13;20.25;;;;;;;2.07;100.00;100978.81;2610497;36;20034;-54
2022/12/11 06:49:42;;;;;;;52.10;21.52;;;;;;;2.19;100.00;100977.34;2609312;36;20706;-49
2022/12/11 06:52:10;;;;;;;48.47;18.42;;;;;;;2.22;100.00;100977.19;2610475;31;20511;-55
2022/12/11 06:54:39;;;;;;;49.25;19.25;;;;;;;2.24;100.00;100980.63;2608394;36;20289;-51
2022/12/11 06:57:07;;;;;;;53.55;20.23;;;;;;;2.19;100.00;100985.31;2608906;36;20034;-55
2022/12/11 06:59:38;;;;;;;45.20;18.23;;;;;;;2.29;100.00;100989.19;2608892;36;20038;-54
2022/12/11 07:02:07;;;;;;;47.13;19.05;;;;;;;2.27;100.00;100994.59;2609654;36;20034;-49
2022/12/11 07:04:35;;;;;;;50.40;18.88;;;;;;;2.30;100.00;100993.59;2608785;36;20026;-52
2022/12/11 07:07:03;;;;;;;49.33;18.80;;;;;;;2.38;100.00;100988.72;2609988;36;20439;-54
2022/12/11 07:09:32;;;;;;;46.47;18.95;;;;;;;2.38;100.00;100996.69;2610211;36;20042;-51
2022/12/11 07:12:00;;;;;;;46.65;19.05;;;;;;;2.33;100.00;100996.06;2609068;31;20436;-49
2022/12/11 07:14:29;;;;;;;48.13;19.50;;;;;;;2.32;100.00;100998.81;2610825;36;20583;-56
2022/12/11 07:17:00;;;;;;;44.90;19.23;;;;;;;2.47;100.00;100995.34;2608333;36;20034;-53
2022/12/11 07:19:29;;;;;;;49.60;18.67;;;;;;;2.47;100.00;100997.16;2608994;36;20034;-59
2022/12/11 07:21:57;;;;;;;43.30;17.83;;;;;;;2.41;100.00;100999.19;2609878;36;20559;-59
2022/12/11 07:24:26;;;;;;;45.80;18.65;;;;;;;2.27;100.00;101002.56;2609342;31;20054;-54
2022/12/11 07:26:54;;;;;;;45.88;18.42;;;;;;;2.40;100.00;101007.22;2610408;31;20484;-56
2022/12/11 07:29:23;;;;;;;42.67;17.20;;;;;;;2.41;100.00;101007.13;2609219;36;20038;-50
2022/12/11 07:31:52;;;;;;;45.35;17.85;;;;;;;2.31;100.00;101013.88;2611836;36;20031;-57
2022/12/11 07:34:23;;;;;;;44.65;19.27;;;;;;;2.38;100.00;101009.97;2611261;31;20109;-58
2022/12/11 07:36:51;;;;;;;45.40;18.08;;;;;;;2.32;100.00;101025.38;2610291;31;20073;-55
2022/12/11 07:39:20;;;;;;;44.42;17.00;;;;;;;2.35;100.00;101020.75;2608695;31;20122;-57
2022/12/11 07:41:48;;;;;;;49.47;18.33;;;;;;;2.41;100.00;101014.25;2609301;36;20065;-52
2022/12/11 07:44:17;;;;;;;40.70;16.08;;;;;;;2.39;100.00;101017.00;2608064;36;20543;-50
2022/12/11 07:46:45;;;;;;;40.08;15.50;;;;;;;2.37;100.00;101021.56;2610759;36;20038;-56
2022/12/11 07:49:13;;;;;;;41.75;17.75;;;;;;;2.11;100.00;101020.22;2608662;36;20044;-50
2022/12/11 07:51:45;;;;;;;43.17;17.00;;;;;;;2.28;100.00;101017.56;2609476;31;20065;-49
2022/12/11 07:54:16;;;;;;;43.90;17.15;;;;;;;2.27;100.00;101013.19;2609201;36;20031;-57
2022/12/11 07:56:46;;;;;;;45.47;18.70;;;;;;;2.27;100.00;101025.63;2607807;36;20061;-51
2022/12/11 07:59:16;;;;;;;40.50;17.90;;;;;;;2.24;100.00;101015.16;2607620;36;20535;-57
2022/12/11 08:01:44;;;;;;;;;;;;;;;2.38;100.00;101012.63;2610663;36;20022;-53
2022/12/11 08:04:14;;;;;;;45.95;17.80;;;;;;;2.28;100.00;101014.03;2607904;36;19946;-57
2022/12/11 08:06:46;;;;;;;38.65;15.70;;;;;;;2.35;100.00;101009.28;2607127;36;20065;-52
2022/12/11 08:09:16;;;;;;;47.92;18.27;;;;;;;2.01;100.00;101011.84;2609416;36;20034;-56
2022/12/11 08:11:44;;;;;;;;;;;;;;;2.15;100.00;101018.25;2608962;36;20034;-53
2022/12/11 08:14:12;;;;;;;41.60;17.15;;;;;;;2.27;100.00;101023.81;2609473;36;19965;-56
2022/12/11 08:16:42;;;;;;;46.55;17.95;;;;;;;2.29;100.00;101015.75;2608258;36;20035;-58
2022/12/11 08:19:11;;;;;;;49.70;18.20;;;;;;;2.19;100.00;101003.88;2609189;36;20057;-53
2022/12/11 08:21:40;;;;;;;49.13;18.15;;;;;;;2.17;100.00;101005.78;2608512;36;20038;-51
2022/12/11 08:24:11;;;;;;;47.70;18.40;;;;;;;2.30;100.00;101014.84;2608790;36;20044;-50
2022/12/11 08:26:40;;;;;;;48.72;17.85;;;;;;;2.14;100.00;101016.56;2608613;31;21625;-53
2022/12/11 08:29:08;;;;;;;45.28;18.17;;;;;;;2.05;100.00;101018.72;2609941;36;20022;-53
2022/12/11 08:31:36;;;;;;;47.35;18.02;;;;;;;2.29;100.00;101021.06;2602944;36;20042;-49
2022/12/11 08:34:05;;;;;;;50.63;19.60;;;;;;;2.21;100.00;101024.13;2609598;31;20133;-50
2022/12/11 08:36:33;;;;;;;53.15;18.40;;;;;;;1.96;100.00;101026.28;2611500;36;20034;-49
2022/12/11 08:39:03;;;;;;;49.47;18.57;;;;;;;1.99;100.00;101029.66;2609698;36;20625;-50
2022/12/11 08:41:33;;;;;;;53.83;20.13;;;;;;;2.07;100.00;101026.63;2608762;36;20053;-49
2022/12/11 08:44:02;;;;;;;57.78;20.45;;;;;;;2.15;100.00;101023.56;2611506;36;20042;-49
2022/12/11 08:46:32;;;;;;;51.90;19.67;;;;;;;2.20;100.00;101034.84;2610843;31;20034;-51
2022/12/11 08:49:01;;;;;;;53.22;20.17;;;;;;;2.08;100.00;101018.56;2610308;36;20057;-51
2022/12/11 08:51:31;;;;;;;53.70;19.48;;;;;;;2.20;100.00;101021.56;2609693;36;20431;-51
2022/12/11 08:54:01;;;;;;;55.60;20.27;;;;;;;2.25;100.00;101022.16;2610845;36;20034;-48
2022/12/11 08:56:31;;;;;;;49.40;19.20;;;;;;;2.15;100.00;101023.56;2609055;36;20040;-49
2022/12/11 08:59:05;;;;;;;53.10;22.00;;;;;;;2.20;100.00;101021.56;2608550;36;20072;-48
2022/12/11 09:01:33;;;;;;;48.53;19.45;;;;;;;2.00;100.00;101020.75;2611453;36;20603;-52
2022/12/11 09:04:02;;;;;;;53.67;19.80;;;;;;;1.92;100.00;101017.63;2608744;36;20524;-51
2022/12/11 09:06:33;;;;;;;48.40;20.50;;;;;;;2.04;100.00;101022.31;2607878;31;21731;-51
2022/12/11 09:09:03;;;;;;;52.78;18.98;;;;;;;2.06;100.00;101023.13;2610025;36;20585;-49
2022/12/11 09:11:36;;;;;;;48.75;19.35;;;;;;;2.09;100.00;101028.25;2610166;36;20034;-49
2022/12/11 09:14:08;;;;;;;48.20;18.92;;;;;;;2.04;100.00;101024.97;2609815;36;20038;-49
2022/12/11 09:16:39;;;;;;;48.78;19.60;;;;;;;1.96;100.00;101021.84;2608677;36;20035;-54
2022/12/11 09:19:09;;;;;;;51.03;20.70;;;;;;;1.96;100.00;101024.50;2609460;36;20472;-51
2022/12/11 09:21:38;;;;;;;44.40;18.15;;;;;;;2.11;100.00;101020.22;2609679;36;20539;-49
2022/12/11 09:24:07;;;;;;;43.40;17.38;;;;;;;2.04;100.00;101016.16;2608885;36;20030;-49
2022/12/11 09:26:35;;;;;;;49.15;20.38;;;;;;;2.07;100.00;101016.84;2607760;36;20138;-52
2022/12/11 09:29:07;;;;;;;46.35;18.10;;;;;;;2.14;100.00;101019.22;2610909;36;20045;-53
2022/12/11 09:31:37;;;;;;;49.33;21.10;;;;;;;2.05;100.00;101024.03;2610207;36;20035;-49
2022/12/11 09:34:07;;;;;;;47.45;19.08;;;;;;;2.00;100.00;101020.75;2610051;31;20894;-50
2022/12/11 09:36:36;;;;;;;45.28;19.10;;;;;;;2.02;100.00;101020.69;2609508;36;20034;-50
2022/12/11 09:39:07;;;;;;;50.28;20.90;;;;;;;1.95;100.00;101021.94;2609513;36;20074;-51
2022/12/11 09:41:39;;;;;;;42.70;19.05;;;;;;;1.80;100.00;101012.94;2608976;36;20022;-51
2022/12/11 09:44:25;;;;;;;40.08;18.15;;;;;;;1.76;100.00;101020.19;2609462;36;20038;-52
2022/12/11 09:46:53;;;;;;;49.33;19.33;;;;;;;1.65;100.00;101025.16;2609342;36;20124;-49
2022/12/11 09:49:28;;;;;;;45.55;18.52;;;;;;;1.75;100.00;101026.41;2611212;36;20042;-51
2022/12/11 09:52:07;;;;;;;44.63;18.38;;;;;;;1.71;100.00;101030.19;2610875;36;20411;-48
2022/12/11 09:54:36;;;;;;;47.78;19.58;;;;;;;1.77;100.00;101023.69;2608784;36;20034;-49
2022/12/11 09:57:16;;;;;;;38.83;17.45;;;;;;;1.79;100.00;101014.72;2608405;36;21801;-50
2022/12/11 10:00:03;;;;;;;41.38;17.83;;;;;;;1.71;100.00;101017.75;2611381;36;21172;-50
2022/12/11 10:02:40;;;;;;;41.60;17.73;;;;;;;1.75;100.00;101015.81;2608663;36;20031;-49
2022/12/11 10:05:19;;;;;;;41.92;17.55;;;;;;;1.79;100.00;101011.22;2607723;36;20081;-49
2022/12/11 10:07:53;;;;;;;47.97;18.77;;;;;;;1.79;100.00;101020.03;2609817;31;20034;-53
2022/12/11 10:10:37;;;;;;;45.92;18.45;;;;;;;1.80;100.00;101023.56;2608169;36;20035;-51
2022/12/11 10:13:15;;;;;;;38.78;16.05;;;;;;;1.80;100.00;101018.25;2615453;36;20030;-53
2022/12/11 10:15:52;;;;;;;43.97;16.55;;;;;;;1.87;100.00;101019.63;2616020;31;20038;-51
2022/12/11 10:18:24;;;;;;;38.70;16.10;;;;;;;1.79;100.00;101013.88;2616072;36;20018;-50
2022/12/11 10:20:55;;;;;;;38.33;15.88;;;;;;;1.80;100.00;101012.94;2614135;36;20917;-49
2022/12/11 10:23:34;;;;;;;35.22;15.10;;;;;;;1.95;100.00;101016.63;2612790;36;20034;-52
2022/12/11 10:26:07;;;;;;;35.33;15.50;;;;;;;1.87;100.00;101009.03;2614529;36;20512;-49
2022/12/11 10:28:36;;;;;;;39.08;15.52;;;;;;;2.14;100.00;101005.94;2614714;36;20420;-50
2022/12/11 10:31:17;;;;;;;36.38;15.10;;;;;;;2.31;100.00;100997.94;2614232;36;20042;-53
2022/12/11 10:33:56;;;;;;;35.20;15.05;;;;;;;2.14;100.00;100995.31;2615423;36;20035;-49
2022/12/11 10:36:30;;;;;;;37.55;14.25;;;;;;;2.26;100.00;100992.03;2615195;36;20085;-49
2022/12/11 10:38:59;;;;;;;38.72;15.70;;;;;;;2.44;100.00;100991.06;2614635;36;20070;-49
2022/12/11 10:41:38;;;;;;;32.38;13.85;;;;;;;2.43;100.00;100991.16;2613760;36;20026;-49
2022/12/11 10:44:17;;;;;;;38.13;15.93;;;;;;;2.43;100.00;100992.00;2614566;36;20031;-50
2022/12/11 10:46:49;;;;;;;32.67;14.23;;;;;;;2.51;100.00;100993.41;2613230;36;20047;-49
2022/12/11 10:49:24;;;;;;;35.78;14.63;;;;;;;2.52;100.00;100989.78;2615060;36;20512;-49
2022/12/11 10:51:54;;;;;;;33.85;13.57;;;;;;;2.67;100.00;100988.97;2614621;36;20066;-49
2022/12/11 10:54:32;;;;;;;34.78;14.98;;;;;;;2.69;100.00;100989.75;2613620;36;20546;-53
2022/12/11 10:57:03;;;;;;;40.42;15.90;;;;;;;2.59;100.00;100993.84;2615353;36;20605;-50
2022/12/11 10:59:37;;;;;;;34.20;16.17;;;;;;;2.61;100.00;100989.31;2615105;31;20034;-49
2022/12/11 11:02:20;;;;;;;36.08;14.82;;;;;;;2.59;100.00;100993.84;2615588;31;20418;-48
2022/12/11 11:04:49;;;;;;;33.67;15.55;;;;;;;2.32;100.00;100986.38;2614615;36;20031;-50
2022/12/11 11:07:22;;;;;;;34.95;15.15;;;;;;;2.59;100.00;100986.75;2616043;36;20026;-50
2022/12/11 11:09:53;;;;;;;32.90;15.07;;;;;;;2.58;100.00;100989.47;2615441;36;20039;-51
2022/12/11 11:12:25;;;;;;;31.98;15.23;;;;;;;2.66;100.00;100981.94;2616622;36;20505;-50
2022/12/11 11:15:03;;;;;;;30.75;14.70;;;;;;;2.50;100.00;100986.34;2617003;31;20057;-50
2022/12/11 11:17:41;;;;;;;36.63;16.17;;;;;;;2.65;100.00;100980.25;2616521;31;20045;-49
2022/12/11 11:20:16;;;;;;;33.38;16.67;;;;;;;2.61;100.00;100978.69;2615973;36;20022;-51
2022/12/11 11:22:48;;;;;;;39.85;17.10;;;;;;;2.51;100.00;100977.47;2612950;36;20034;-51
2022/12/11 11:25:22;;;;;;;36.50;15.52;;;;;;;2.44;100.00;100977.78;2614954;36;20141;-49
2022/12/11 11:27:53;;;;;;;37.65;15.68;;;;;;;2.66;100.00;100976.63;2616099;36;20034;-52
2022/12/11 11:30:24;;;;;;;34.78;16.65;;;;;;;2.64;100.00;100973.19;2614483;36;20439;-49
2022/12/11 11:32:59;;;;;;;35.90;15.25;;;;;;;2.51;100.00;100970.34;2615951;36;20348;-49
2022/12/11 11:35:29;;;;;;;37.67;15.40;;;;;;;2.60;100.00;100961.88;2614782;36;20427;-51